Time;durP1;ratioP1;P1;durP2;ratioP2;P2;SDS_P1;SDS_P2;PMS_P1;PMS_P2;Temp;Humidity;BMP_temperature;BMP_pressure;BME280_temperature;BME280_humidity;BME280_pressure;Samples;Min_cycle;Max_cycle;Signal;HPM_P1;HPM_P2
2024/01/10 07:01:21;;;;;;;1.37;0.63;;;-3.80;99.90;-1.80;102767.00;;;;6256806;22;1415596;-70
2024/01/10 07:03:48;;;;;;;1.57;0.77;;;-3.90;99.90;-2.20;102723.00;;;;6309179;22;20255;-70
2024/01/10 07:06:14;;;;;;;0.20;0.20;;;-3.90;99.90;-1.20;102767.00;;;;6282723;22;20545;-72
2024/01/10 07:08:44;;;;;;;0.87;0.87;;;-3.90;99.90;-1.00;102757.00;;;;6281973;22;20141;-72
2024/01/10 07:11:11;;;;;;;0.63;0.63;;;-3.50;99.90;-1.70;102772.00;;;;6282791;22;20140;-72
2024/01/10 07:13:37;;;;;;;1.57;1.47;;;-3.50;99.90;-2.40;102682.00;;;;6281865;22;20140;-70
2024/01/10 07:16:03;;;;;;;0.30;0.30;;;-3.80;99.90;-2.50;102687.00;;;;6282415;22;20220;-70
2024/01/10 07:18:50;;;;;;;1.20;1.13;;;-4.00;99.90;-2.50;102784.00;;;;6281896;22;20231;-70
2024/01/10 07:21:16;;;;;;;1.93;0.87;;;-4.00;99.90;-2.50;102667.00;;;;6282670;22;20136;-69
2024/01/10 07:23:43;;;;;;;3.20;1.13;;;-4.00;99.90;-2.60;102764.00;;;;6256249;22;20172;-69
2024/01/10 07:26:13;;;;;;;12.63;1.70;;;-4.00;99.90;-2.40;102678.00;;;;6256867;22;20238;-69
2024/01/10 07:28:42;;;;;;;3.50;0.73;;;-4.00;99.90;-2.40;102755.00;;;;6281908;22;20223;-70
2024/01/10 07:31:08;;;;;;;0.30;0.30;;;-4.00;99.90;-2.20;102752.00;;;;6281533;22;20247;-72
2024/01/10 07:33:40;;;;;;;2.60;2.50;;;-3.90;99.90;-1.90;102752.00;;;;6281961;22;20156;-72
2024/01/10 07:36:09;;;;;;;1.63;1.53;;;-3.80;99.90;-2.30;102767.00;;;;6256437;22;20183;-72
2024/01/10 07:38:41;;;;;;;3.20;1.57;;;-3.80;99.90;-2.70;102754.00;;;;6255879;22;20164;-72
2024/01/10 07:41:13;;;;;;;0.30;0.30;;;-3.90;99.90;-2.50;102745.00;;;;6256384;22;20160;-70
2024/01/10 07:43:42;;;;;;;3.17;1.10;;;-4.00;99.90;-2.50;102775.00;;;;6281902;22;20168;-70
2024/01/10 07:46:11;;;;;;;1.70;0.40;;;-4.00;99.90;-2.10;102746.00;;;;6281716;22;20159;-71
2024/01/10 07:48:37;;;;;;;1.03;0.93;;;-3.90;99.90;-1.70;102659.00;;;;6281921;22;20137;-72
2024/01/10 07:51:04;;;;;;;0.73;0.60;;;-3.90;99.90;-1.70;102747.00;;;;6256524;22;20156;-72
2024/01/10 07:53:53;;;;;;;1.27;1.17;;;-3.70;99.90;-1.70;102745.00;;;;6281750;22;20144;-72
2024/01/10 07:56:25;;;;;;;0.40;0.40;;;-3.70;99.90;-1.40;102754.00;;;;6281487;22;20202;-72
2024/01/10 07:58:51;;;;;;;0.70;0.70;;;-3.70;99.90;-1.10;102674.00;;;;6282733;22;20151;-73
2024/01/10 08:01:18;;;;;;;0.43;0.43;;;-3.50;99.90;-1.40;102646.00;;;;6255534;22;20491;-72
2024/01/10 08:04:24;;;;;;;0.20;0.20;;;-3.50;99.90;-2.00;102726.00;;;;6280842;22;20631;-72
2024/01/10 08:07:15;;;;;;;1.27;1.00;;;-3.70;99.90;-2.10;102749.00;;;;6281626;22;20183;-72
2024/01/10 08:10:33;;;;;;;2.83;2.03;;;-3.90;99.90;-2.70;102668.00;;;;6281155;22;20185;-72
2024/01/10 08:13:52;;;;;;;0.67;0.40;;;-3.90;99.90;-1.10;102758.00;;;;6255800;22;20525;-72
2024/01/10 08:16:40;;;;;;;0.40;0.40;;;-3.80;99.90;-0.30;102724.00;;;;6281627;22;20149;-73
2024/01/10 08:19:46;;;;;;;1.37;1.27;;;-3.20;99.90;-0.30;102728.00;;;;6255150;22;20171;-73
2024/01/10 08:22:46;;;;;;;1.77;1.67;;;-3.00;99.90;-0.40;102718.00;;;;6256338;22;20597;-73
2024/01/10 08:26:05;;;;;;;3.97;1.43;;;-3.10;99.90;-1.70;102743.00;;;;6284032;22;20570;-72
2024/01/10 08:28:53;;;;;;;4.27;1.67;;;-3.10;99.90;-2.20;102738.00;;;;6281547;22;20243;-72
2024/01/10 08:31:56;;;;;;;0.27;0.27;;;-3.60;99.90;-1.70;102751.00;;;;6280831;22;20145;-72
2024/01/10 08:34:44;;;;;;;1.43;1.33;;;-3.50;99.90;-1.10;102674.00;;;;6281134;22;20139;-73
2024/01/10 08:37:13;;;;;;;0.30;0.30;;;-3.50;99.90;-0.80;102727.00;;;;6287845;22;20160;-72
2024/01/10 08:40:06;;;;;;;1.73;1.60;;;-3.20;99.90;-1.70;102747.00;;;;6255755;22;20156;-72
2024/01/10 08:43:02;;;;;;;0.60;0.60;;;-3.40;99.90;-0.50;102733.00;;;;6281897;22;20183;-72
2024/01/10 08:45:37;;;;;;;1.23;1.23;;;-3.10;99.90;-0.30;102728.00;;;;6265914;22;20163;-72
2024/01/10 08:48:10;;;;;;;1.23;1.07;;;-2.80;99.90;-0.80;102682.00;;;;6281041;22;20147;-72
2024/01/10 08:50:42;;;;;;;0.30;0.30;;;-3.00;99.90;-0.50;102713.00;;;;6308630;22;20144;-72
2024/01/10 08:53:21;;;;;;;0.97;0.67;;;-2.90;99.90;-0.50;102722.00;;;;6280845;22;20148;-72
2024/01/10 08:56:09;;;;;;;2.00;1.20;;;-2.80;99.90;-1.50;102734.00;;;;6280813;22;20140;-73
2024/01/10 08:59:15;;;;;;;0.87;0.87;;;-3.00;99.90;-2.10;102731.00;;;;6259088;22;20157;-73
2024/01/10 09:01:42;;;;;;;1.50;1.07;;;-3.20;99.90;-1.10;102730.00;;;;6306471;22;20163;-73
2024/01/10 09:04:11;;;;;;;2.13;1.93;;;-3.20;99.90;-1.20;102746.00;;;;6280937;22;20144;-73
2024/01/10 09:07:09;;;;;;;2.10;1.77;;;-3.10;99.90;-1.70;102739.00;;;;6281794;22;20141;-73
2024/01/10 09:10:05;;;;;;;0.87;0.77;;;-2.80;99.90;-1.70;102740.00;;;;6307776;22;20576;-74
2024/01/10 09:12:45;;;;;;;2.57;1.50;;;-3.10;99.90;-1.10;102717.00;;;;6279889;22;20165;-74
2024/01/10 09:15:20;;;;;;;2.53;2.37;;;-3.00;99.90;-1.00;102715.00;;;;6281653;22;20147;-72
2024/01/10 09:18:11;;;;;;;5.57;2.83;;;-3.00;99.90;-2.20;102684.00;;;;6280650;22;20158;-73
2024/01/10 09:20:57;;;;;;;2.77;1.70;;;-3.20;99.90;-1.60;102739.00;;;;6279205;22;20574;-73
2024/01/10 09:23:23;;;;;;;2.50;0.80;;;-3.00;99.90;-1.30;102724.00;;;;6252998;22;20181;-71
2024/01/10 09:25:49;;;;;;;2.03;1.87;;;-2.90;99.90;-1.40;102728.00;;;;6279771;22;20148;-71
2024/01/10 09:28:18;;;;;;;0.67;0.67;;;-2.80;99.90;0.00;102717.00;;;;6278337;22;20213;-71
2024/01/10 09:30:47;;;;;;;1.63;1.53;;;-2.50;99.90;0.10;102719.00;;;;6306209;22;20231;-71
2024/01/10 09:33:13;;;;;;;2.00;1.90;;;-2.20;99.90;0.20;102715.00;;;;6306533;22;20183;-71
2024/01/10 09:35:39;;;;;;;1.40;1.20;;;-2.10;99.90;-0.30;102706.00;;;;6306962;22;20141;-71
2024/01/10 09:38:05;;;;;;;1.80;1.00;;;-2.20;99.90;0.90;102700.00;;;;6280566;22;20187;-71
2024/01/10 09:40:31;;;;;;;3.73;1.40;;;-1.90;99.90;0.40;102715.00;;;;6254688;22;20166;-71
2024/01/10 09:42:58;;;;;;;0.70;0.70;;;-1.60;99.90;0.70;102709.00;;;;6280524;22;20187;-72
2024/01/10 09:45:26;;;;;;;4.90;1.70;;;-1.80;99.90;0.20;102709.00;;;;6281083;22;20145;-71
2024/01/10 09:47:57;;;;;;;3.63;3.30;;;-1.90;99.90;0.00;102716.00;;;;6280438;22;20192;-71
2024/01/10 09:50:25;;;;;;;2.83;2.07;;;-1.80;99.90;-0.40;102722.00;;;;6280638;22;20195;-71
2024/01/10 09:52:53;;;;;;;3.93;2.60;;;-2.00;99.90;-1.20;102662.00;;;;6280533;22;20602;-71
2024/01/10 09:55:30;;;;;;;2.43;2.27;;;-2.20;99.90;-0.40;102717.00;;;;6280719;22;20516;-71
2024/01/10 09:57:56;;;;;;;0.63;0.60;;;-2.20;99.90;0.30;102713.00;;;;6254783;22;20187;-71
2024/01/10 10:00:26;;;;;;;0.83;0.83;;;-1.90;99.90;0.60;102652.00;;;;6307645;22;20185;-71
2024/01/10 10:02:58;;;;;;;0.63;0.50;;;-1.70;99.90;1.30;102689.00;;;;6254800;22;20179;-72
2024/01/10 10:05:24;;;;;;;2.03;1.27;;;-1.20;99.90;2.00;102629.00;;;;6281454;22;20139;-72
2024/01/10 10:07:57;;;;;;;2.13;1.20;;;-0.90;99.90;0.80;102734.00;;;;6280154;22;20564;-69
2024/01/10 10:10:23;;;;;;;0.47;0.47;;;-0.70;99.90;1.40;102714.00;;;;6281609;22;20236;-71
2024/01/10 10:12:56;;;;;;;0.60;0.60;;;-1.00;99.90;1.50;102722.00;;;;6307141;22;20569;-71
2024/01/10 10:15:26;;;;;;;3.03;1.90;;;-0.90;99.90;2.20;102763.00;;;;6255560;22;20650;-69
2024/01/10 10:17:53;;;;;;;2.93;1.60;;;-0.30;99.90;1.20;102728.00;;;;6279865;22;20160;-71
2024/01/10 10:20:28;;;;;;;4.00;1.73;;;-0.40;99.90;-0.10;102738.00;;;;6280692;22;20164;-71
2024/01/10 10:33:26;;;;;;;5.43;2.87;;;-1.60;99.90;0.30;102735.00;;;;5021040;28;20599;-70
2024/01/10 10:35:52;;;;;;;1.33;1.23;;;-1.20;99.90;1.50;102720.00;;;;5059612;28;20643;-69
2024/01/10 10:38:22;;;;;;;1.53;1.43;;;-0.80;99.90;3.00;102695.00;;;;5098568;28;20276;-68
2024/01/10 10:40:48;;;;;;;1.30;1.20;;;-0.20;99.90;2.80;102710.00;;;;5037569;28;20212;-69
2024/01/10 10:43:28;;;;;;;2.10;1.33;;;0.20;99.90;3.20;102684.00;;;;5067768;28;20216;-68
2024/01/10 10:46:01;;;;;;;1.73;0.90;;;0.50;99.90;3.30;102689.00;;;;5022646;28;20189;-68
2024/01/10 10:48:34;;;;;;;1.90;1.53;;;0.90;99.90;3.30;102692.00;;;;5059753;28;20220;-68
2024/01/10 10:51:03;;;;;;;0.43;0.43;;;0.70;99.90;4.00;102628.00;;;;5059867;28;20551;-69
2024/01/10 10:53:31;;;;;;;5.90;4.07;;;1.00;99.90;1.70;102711.00;;;;4990134;28;20230;-68
2024/01/10 10:56:09;;;;;;;7.87;7.30;;;0.60;99.90;1.90;102694.00;;;;4989932;28;20200;-69
2024/01/10 10:58:40;;;;;;;5.20;3.60;;;0.10;99.90;1.10;102717.00;;;;5059611;28;20197;-68
2024/01/10 11:01:14;;;;;;;1.70;1.70;;;-0.20;99.90;1.90;102677.00;;;;5048408;28;20264;-77
2024/01/10 11:03:44;;;;;;;0.30;0.30;;;-0.30;99.90;2.70;102706.00;;;;5088272;28;20196;-71
2024/01/10 11:06:45;;;;;;;5.00;2.57;;;0.00;99.90;2.20;102684.00;;;;5020181;28;20216;-68
2024/01/10 11:09:41;;;;;;;2.30;2.13;;;0.50;99.90;3.80;102681.00;;;;5005369;28;20715;-71
2024/01/10 11:12:37;;;;;;;0.20;0.20;;;0.90;99.90;4.70;102691.00;;;;5017333;28;20217;-69
2024/01/10 11:15:43;;;;;;;0.70;0.70;;;1.40;99.90;4.60;102718.00;;;;5007024;28;20191;-69
2024/01/10 11:18:46;;;;;;;1.17;1.17;;;1.90;99.90;2.30;102716.00;;;;5030557;28;20177;-69
2024/01/10 11:21:51;;;;;;;1.57;0.90;;;0.50;99.90;3.90;102708.00;;;;5058946;28;20267;-68
2024/01/10 11:24:37;;;;;;;3.93;0.83;;;0.90;99.90;3.10;102700.00;;;;5026380;28;20237;-69
2024/01/10 11:27:21;;;;;;;0.80;0.80;;;1.40;99.90;4.00;102701.00;;;;5010950;28;20214;-69
2024/01/10 11:30:10;;;;;;;4.60;3.20;;;1.40;99.90;3.10;102642.00;;;;5050759;28;20209;-69
2024/01/10 11:33:23;;;;;;;4.83;3.00;;;1.40;99.90;2.20;102664.00;;;;5042266;28;20234;-68
2024/01/10 11:40:15;;;;;;;2.77;1.67;;;0.30;99.90;2.50;102680.00;;;;5024481;28;20226;-68
2024/01/10 11:43:25;;;;;;;0.73;0.73;;;0.60;99.90;3.50;102684.00;;;;5012670;28;20240;-68
2024/01/10 11:46:48;;;;;;;1.47;1.37;;;1.00;99.90;3.50;102669.00;;;;4997589;28;20214;-68
2024/01/10 11:50:15;;;;;;;3.50;2.17;;;1.30;99.90;2.30;102660.00;;;;4997175;28;20202;-69
2024/01/10 11:53:40;;;;;;;3.43;3.13;;;1.00;99.90;2.40;102659.00;;;;5011530;28;20231;-69
2024/01/10 11:57:24;;;;;;;3.00;1.90;;;0.80;99.90;2.80;102660.00;;;;4995529;28;20195;-69
2024/01/10 12:00:28;;;;;;;2.90;2.10;;;1.10;99.90;4.20;102657.00;;;;4985488;28;20218;-70
2024/01/10 12:03:18;;;;;;;0.83;0.83;;;1.30;99.90;5.20;102649.00;;;;5004782;28;20195;-71
2024/01/10 12:06:17;;;;;;;1.30;1.20;;;2.20;99.90;5.10;102622.00;;;;4958147;28;20251;-71
2024/01/10 12:09:26;;;;;;;1.57;1.17;;;2.50;99.90;5.40;102624.00;;;;4932064;28;20195;-72
2024/01/10 12:12:39;;;;;;;2.00;1.37;;;2.50;99.90;4.10;102632.00;;;;4941108;28;20210;-71
2024/01/10 12:15:50;;;;;;;0.70;0.70;;;1.80;99.90;3.10;102633.00;;;;4939269;28;20298;-71
2024/01/10 12:18:20;;;;;;;0.40;0.40;;;1.10;99.90;4.00;102581.00;;;;4960554;28;20573;-71
2024/01/10 12:21:05;;;;;;;2.67;2.50;;;1.50;99.90;3.90;102611.00;;;;4936538;28;20194;-73
2024/01/10 12:24:14;;;;;;;1.67;1.57;;;1.60;99.90;4.70;102606.00;;;;4937225;28;20199;-72
2024/01/10 12:27:09;;;;;;;0.73;0.73;;;2.10;99.90;3.40;102627.00;;;;4922381;28;20201;-72
2024/01/10 12:30:23;;;;;;;7.73;1.00;;;1.50;99.90;4.40;102609.00;;;;4983450;28;20237;-72
2024/01/10 12:32:59;;;;;;;2.93;1.83;;;1.60;99.90;4.30;102601.00;;;;4966527;28;20290;-72
2024/01/10 12:36:09;;;;;;;1.53;1.43;;;2.00;99.90;3.80;102607.00;;;;4912885;28;20198;-72
2024/01/10 12:38:40;;;;;;;4.50;2.27;;;1.70;99.90;4.80;102615.00;;;;4923594;28;20201;-72
2024/01/10 12:41:35;;;;;;;0.50;0.50;;;1.90;99.90;5.60;102597.00;;;;4941912;28;20421;-72
2024/01/10 12:44:24;;;;;;;0.20;0.20;;;2.40;99.90;4.80;102577.00;;;;4981139;28;20275;-72
2024/01/10 12:47:30;;;;;;;1.77;1.67;;;2.70;99.90;3.80;102602.00;;;;5044432;28;20190;-72
2024/01/10 12:50:34;;;;;;;4.30;2.40;;;2.20;99.90;3.20;102578.00;;;;5032926;28;20268;-72
2024/01/10 12:53:32;;;;;;;0.80;0.80;;;1.70;99.90;3.40;102600.00;;;;5041509;28;20286;-72
2024/01/10 12:56:36;;;;;;;1.77;1.67;;;1.40;99.90;4.40;102601.00;;;;5009011;28;20189;-72
2024/01/10 12:59:54;;;;;;;2.33;2.17;;;1.50;99.90;4.50;102593.00;;;;5010039;28;20189;-72
2024/01/10 13:02:46;;;;;;;2.43;1.60;;;2.10;99.90;4.80;102603.00;;;;5010994;28;20663;-72
2024/01/10 13:05:50;;;;;;;4.83;2.73;;;2.00;99.90;1.90;102610.00;;;;5016038;28;20184;-72
2024/01/10 13:08:27;;;;;;;4.20;2.63;;;1.40;99.90;3.60;102519.00;;;;5026157;28;20187;-72
2024/01/10 13:11:14;;;;;;;2.77;2.17;;;1.30;99.90;3.50;102596.00;;;;5037939;28;20250;-72
2024/01/10 13:13:49;;;;;;;1.57;1.13;;;1.70;99.90;3.40;102590.00;;;;5062895;28;20177;-71
2024/01/10 13:16:35;;;;;;;1.13;1.03;;;1.30;99.90;4.10;102593.00;;;;4964901;28;20643;-72
2024/01/10 13:19:48;;;;;;;4.27;2.87;;;1.50;99.90;2.60;102605.00;;;;4996527;28;20180;-72
2024/01/10 13:22:23;;;;;;;2.20;2.00;;;1.50;99.90;2.90;102602.00;;;;4980064;28;20214;-72
2024/01/10 13:24:54;;;;;;;1.50;1.07;;;1.00;99.90;3.30;102583.00;;;;4990215;28;20192;-72
2024/01/10 13:27:52;;;;;;;3.73;2.73;;;1.10;99.90;2.40;102601.00;;;;5010313;28;20189;-71
2024/01/10 13:30:18;;;;;;;3.73;1.90;;;1.10;99.90;2.80;102616.00;;;;5015128;28;20239;-72
2024/01/10 13:33:11;;;;;;;2.20;2.00;;;1.20;99.90;3.90;102604.00;;;;4955779;28;20291;-72
2024/01/10 13:36:00;;;;;;;0.20;0.20;;;1.20;99.90;4.20;102613.00;;;;4998676;28;20188;-72
2024/01/10 13:39:03;;;;;;;0.57;0.57;;;1.60;99.90;3.50;102614.00;;;;4963478;28;20239;-72
2024/01/10 13:41:35;;;;;;;1.10;0.93;;;1.50;99.90;3.40;102610.00;;;;5020559;28;20222;-72
2024/01/10 13:44:01;;;;;;;1.93;1.73;;;1.40;99.90;3.90;102540.00;;;;5029560;28;20242;-72
2024/01/10 13:46:53;;;;;;;3.20;2.53;;;1.50;99.90;3.40;102601.00;;;;5024177;28;20556;-72
2024/01/10 13:49:48;;;;;;;4.17;1.97;;;1.60;99.90;4.00;102585.00;;;;5047749;28;20192;-72
2024/01/10 13:52:17;;;;;;;5.47;2.13;;;1.60;99.90;3.10;102616.00;;;;4994201;28;20275;-72
2024/01/10 13:54:52;;;;;;;4.20;3.40;;;1.40;99.90;3.10;102611.00;;;;5006910;28;20238;-72
2024/01/10 13:57:35;;;;;;;10.83;2.63;;;1.40;99.90;2.40;102596.00;;;;4980789;28;20245;-72
2024/01/10 14:00:34;;;;;;;1.60;1.30;;;1.10;99.90;2.90;102608.00;;;;5056636;28;20215;-72
2024/01/10 14:03:18;;;;;;;1.17;1.17;;;1.10;99.90;4.80;102590.00;;;;4999476;28;20193;-72
2024/01/10 14:05:47;;;;;;;4.77;2.20;;;1.70;99.90;4.10;102610.00;;;;5023472;28;20200;-72
2024/01/10 14:08:40;;;;;;;3.47;3.07;;;1.80;99.90;2.10;102613.00;;;;4973579;28;20185;-72
2024/01/10 14:11:09;;;;;;;7.17;4.43;;;1.40;99.90;2.30;102603.00;;;;5037246;28;20194;-72
2024/01/10 14:13:37;;;;;;;3.10;2.20;;;1.10;99.90;2.60;102600.00;;;;5024012;28;20219;-72
2024/01/10 14:16:03;;;;;;;6.70;4.03;;;1.00;99.90;2.50;102603.00;;;;4973381;28;20192;-72
2024/01/10 14:18:35;;;;;;;0.70;0.70;;;1.00;99.90;3.30;102617.00;;;;4998401;28;20268;-72
2024/01/10 14:21:07;;;;;;;2.83;2.63;;;1.10;99.90;2.30;102617.00;;;;5057296;28;20572;-72
2024/01/10 14:23:41;;;;;;;0.73;0.73;;;1.00;99.90;3.20;102629.00;;;;4999597;28;20187;-71
2024/01/10 14:26:30;;;;;;;0.23;0.23;;;1.00;99.90;4.30;102591.00;;;;4965561;28;20193;-71
2024/01/10 14:29:05;;;;;;;1.87;1.77;;;1.30;99.90;4.90;102615.00;;;;4994766;28;20196;-71
2024/01/10 14:31:49;;;;;;;1.83;1.73;;;1.80;99.90;5.00;102613.00;;;;4995527;28;20212;-71
2024/01/10 14:34:53;;;;;;;5.33;3.80;;;2.00;99.90;3.00;102598.00;;;;4999208;28;20191;-71
2024/01/10 14:37:59;;;;;;;0.20;0.20;;;1.60;99.90;4.00;102625.00;;;;4979141;28;20215;-71
2024/01/10 14:41:24;;;;;;;1.63;1.60;;;1.60;99.90;4.60;102627.00;;;;4985829;28;20666;-71
2024/01/10 14:44:19;;;;;;;1.43;1.33;;;1.80;99.90;4.30;102618.00;;;;4987234;28;20186;-72
2024/01/10 14:47:38;;;;;;;2.70;2.60;;;1.50;99.90;4.40;102625.00;;;;4986508;28;20194;-70
2024/01/10 14:50:29;;;;;;;4.37;2.30;;;1.80;99.90;3.20;102622.00;;;;4982768;28;20193;-70
2024/01/10 14:53:35;;;;;;;0.83;0.83;;;1.30;99.90;3.90;102626.00;;;;4982016;28;20499;-70
2024/01/10 14:56:27;;;;;;;1.33;1.03;;;1.50;99.90;3.80;102613.00;;;;4986940;28;20201;-71
2024/01/10 14:59:43;;;;;;;0.30;0.30;;;1.20;99.90;3.80;102640.00;;;;4983754;28;20188;-70
2024/01/10 15:02:18;;;;;;;1.50;1.40;;;1.20;99.90;3.90;102540.00;;;;4983588;28;20197;-71
2024/01/10 15:04:50;;;;;;;0.87;0.80;;;1.30;99.90;3.70;102633.00;;;;4985433;28;20188;-70
2024/01/10 15:07:28;;;;;;;2.93;2.10;;;1.20;99.90;2.30;102646.00;;;;4979567;28;20188;-70
2024/01/10 15:09:54;;;;;;;1.20;0.80;;;1.10;99.90;2.70;102662.00;;;;5003817;28;20602;-70
2024/01/10 15:12:22;;;;;;;1.07;1.07;;;1.00;99.90;3.00;102581.00;;;;4987948;28;20244;-70
2024/01/10 15:14:51;;;;;;;1.10;1.10;;;0.80;99.90;3.50;102652.00;;;;4988433;28;20635;-71
2024/01/10 15:18:04;;;;;;;0.83;0.83;;;1.10;99.90;3.00;102643.00;;;;4999097;28;20193;-71
2024/01/10 15:20:53;;;;;;;0.50;0.50;;;0.90;99.90;3.40;102653.00;;;;4990865;28;20200;-70
2024/01/10 15:24:00;;;;;;;1.17;0.83;;;1.00;99.90;3.40;102651.00;;;;4999441;28;20188;-70
2024/01/10 15:26:46;;;;;;;3.67;3.27;;;1.10;99.90;3.90;102667.00;;;;4983593;28;20655;-71
2024/01/10 15:29:32;;;;;;;0.90;0.90;;;1.20;99.90;4.60;102679.00;;;;4954350;28;20216;-71
2024/01/10 15:31:58;;;;;;;0.93;0.93;;;1.60;99.90;3.20;102628.00;;;;4971226;28;20704;-70
2024/01/10 15:34:32;;;;;;;0.40;0.40;;;1.20;99.90;3.90;102682.00;;;;4987500;28;20220;-70
2024/01/10 15:37:02;;;;;;;1.23;1.10;;;1.10;99.90;3.60;102683.00;;;;4968686;28;20631;-71
2024/01/10 15:39:33;;;;;;;3.73;1.60;;;1.30;99.90;3.80;102679.00;;;;4996709;28;20192;-71
2024/01/10 15:41:59;;;;;;;1.50;1.40;;;1.30;99.90;4.20;102667.00;;;;4990243;28;20193;-70
2024/01/10 15:44:26;;;;;;;0.87;0.87;;;1.30;99.90;3.20;102688.00;;;;5020358;28;20631;-70
2024/01/10 15:46:52;;;;;;;2.47;1.80;;;1.00;99.90;3.50;102689.00;;;;5042863;28;20994;-70
2024/01/10 15:49:35;;;;;;;4.17;2.77;;;1.00;99.90;2.50;102685.00;;;;5030957;28;20276;-70
2024/01/10 15:52:26;;;;;;;0.70;0.70;;;0.70;99.90;3.40;102693.00;;;;5068838;28;20201;-70
2024/01/10 15:55:10;;;;;;;1.40;1.40;;;0.80;99.90;2.30;102620.00;;;;5030458;28;20189;-70
2024/01/10 15:57:38;;;;;;;0.20;0.20;;;0.60;99.90;3.10;102712.00;;;;5034682;28;20189;-71
2024/01/10 16:00:06;;;;;;;1.30;0.93;;;0.60;99.90;2.80;102716.00;;;;5011816;28;20189;-71
2024/01/10 16:02:35;;;;;;;1.00;0.97;;;0.60;99.90;3.50;102711.00;;;;5020875;28;20216;-71
2024/01/10 16:05:01;;;;;;;2.10;2.03;;;0.80;99.90;4.30;102658.00;;;;5046597;28;20192;-71
2024/01/10 16:07:27;;;;;;;1.17;1.17;;;1.00;99.90;4.70;102696.00;;;;5018254;28;20196;-72
2024/01/10 16:09:56;;;;;;;0.30;0.30;;;1.30;99.90;4.70;102719.00;;;;5040202;28;20217;-72
2024/01/10 16:12:25;;;;;;;0.73;0.73;;;1.50;99.90;3.80;102727.00;;;;4998318;28;20215;-70
2024/01/10 16:14:51;;;;;;;2.97;1.33;;;1.30;99.90;3.40;102712.00;;;;4985574;28;20331;-70
2024/01/10 16:17:34;;;;;;;0.60;0.57;;;1.10;99.90;3.20;102709.00;;;;5005501;28;20280;-70
2024/01/10 16:20:00;;;;;;;0.73;0.73;;;0.80;99.90;2.70;102724.00;;;;5028611;28;20182;-70
2024/01/10 16:22:37;;;;;;;1.03;1.03;;;0.70;99.90;3.90;102726.00;;;;5033488;28;20712;-70
2024/01/10 16:25:05;;;;;;;0.30;0.30;;;0.80;99.90;4.30;102705.00;;;;4980972;28;20216;-70
2024/01/10 16:27:52;;;;;;;1.50;0.43;;;1.10;99.90;3.00;102664.00;;;;5010418;28;20323;-70
2024/01/10 16:30:20;;;;;;;1.87;1.77;;;0.70;99.90;3.40;102730.00;;;;5024784;28;20195;-70
2024/01/10 16:32:48;;;;;;;0.20;0.20;;;0.60;99.90;3.40;102705.00;;;;5023319;28;20221;-70
2024/01/10 16:35:23;;;;;;;0.93;0.93;;;0.60;99.90;3.20;102721.00;;;;5046679;28;20185;-70
2024/01/10 16:37:49;;;;;;;3.20;2.50;;;0.60;99.90;3.20;102723.00;;;;5003652;28;20276;-70
2024/01/10 16:40:57;;;;;;;0.40;0.40;;;0.60;99.90;2.90;102733.00;;;;4972653;28;20295;-70
2024/01/10 16:43:31;;;;;;;1.23;1.23;;;0.60;99.90;2.40;102725.00;;;;4974575;28;20181;-69
2024/01/10 16:46:42;;;;;;;2.53;1.90;;;0.30;99.90;3.50;102718.00;;;;4972526;28;20589;-71
2024/01/10 16:49:09;;;;;;;0.30;0.30;;;0.50;99.90;3.60;102732.00;;;;4971595;28;20212;-69
2024/01/10 16:51:58;;;;;;;0.30;0.30;;;0.60;99.90;3.50;102730.00;;;;4970646;28;20279;-69
2024/01/10 16:54:46;;;;;;;0.20;0.20;;;0.50;99.90;3.90;102715.00;;;;5007727;28;20186;-70
2024/01/10 16:57:33;;;;;;;0.77;0.77;;;0.70;99.90;3.10;102713.00;;;;5011274;28;20280;-71
2024/01/10 17:00:40;;;;;;;1.50;1.50;;;0.70;99.90;2.90;102731.00;;;;5057756;28;20235;-70
2024/01/10 17:03:55;;;;;;;0.53;0.53;;;0.50;99.90;3.00;102732.00;;;;4972667;28;20209;-71
2024/01/10 17:06:44;;;;;;;1.40;1.40;;;0.50;99.90;3.20;102719.00;;;;5036351;28;20178;-71
2024/01/10 17:09:45;;;;;;;3.13;2.93;;;0.40;99.90;3.70;102712.00;;;;4997291;28;20181;-71
2024/01/10 17:12:55;;;;;;;0.30;0.30;;;0.40;99.90;3.30;102740.00;;;;4994300;28;20246;-74
2024/01/10 17:15:21;;;;;;;0.40;0.40;;;0.40;99.90;3.90;102672.00;;;;4959009;28;20197;-71
2024/01/10 17:18:11;;;;;;;0.30;0.30;;;0.50;99.90;4.30;102745.00;;;;4988617;28;20208;-71
2024/01/10 17:20:58;;;;;;;0.50;0.50;;;0.60;99.90;3.60;102695.00;;;;5030491;28;20199;-71
2024/01/10 17:23:33;;;;;;;0.20;0.20;;;0.60;99.90;3.40;102732.00;;;;4964641;28;20246;-71
2024/01/10 17:26:05;;;;;;;0.20;0.20;;;0.70;99.90;3.60;102744.00;;;;4989961;28;20181;-71
2024/01/10 17:28:33;;;;;;;0.20;0.20;;;0.40;99.90;3.90;102731.00;;;;4998156;28;20188;-71
2024/01/10 17:31:19;;;;;;;0.30;0.30;;;0.50;99.90;3.40;102663.00;;;;4974296;28;20192;-71
2024/01/10 17:33:54;;;;;;;0.30;0.30;;;0.50;99.90;3.70;102726.00;;;;4995625;28;20217;-71
2024/01/10 17:36:24;;;;;;;0.40;0.40;;;0.70;99.90;2.60;102746.00;;;;4995445;28;20180;-71
2024/01/10 17:38:52;;;;;;;0.50;0.50;;;0.30;99.90;2.80;102754.00;;;;4968718;28;20193;-71
2024/01/10 17:41:24;;;;;;;3.40;1.13;;;0.20;99.90;3.10;102764.00;;;;4981203;28;20193;-71
2024/01/10 17:44:01;;;;;;;0.87;0.87;;;0.20;99.90;3.70;102772.00;;;;5030202;28;20299;-71
2024/01/10 17:46:36;;;;;;;0.30;0.30;;;0.40;99.90;3.00;102770.00;;;;5011735;28;20250;-71
2024/01/10 17:49:14;;;;;;;21.23;12.13;;;0.50;99.90;3.20;102766.00;;;;4973534;28;20196;-71
2024/01/10 17:51:46;;;;;;;1.03;1.03;;;0.40;99.90;3.10;102777.00;;;;5010375;28;20201;-71
2024/01/10 17:54:21;;;;;;;1.13;1.10;;;0.30;99.90;2.00;102714.00;;;;4994978;28;20188;-71
2024/01/10 17:56:58;;;;;;;0.30;0.30;;;0.00;99.90;2.40;102709.00;;;;5023290;28;20278;-71
2024/01/10 17:59:32;;;;;;;0.23;0.23;;;-0.20;99.90;3.50;102784.00;;;;5000433;28;20193;-71
2024/01/10 18:02:46;;;;;;;2.03;1.93;;;0.20;99.90;3.60;102786.00;;;;5013877;28;20655;-70
2024/01/10 18:05:43;;;;;;;5.23;5.00;;;0.40;99.90;3.90;102764.00;;;;4979687;28;20538;-71
2024/01/10 18:08:26;;;;;;;0.63;0.63;;;0.60;99.90;3.70;102783.00;;;;5005014;28;20207;-71
2024/01/10 18:11:52;;;;;;;0.87;0.87;;;0.50;99.90;2.80;102808.00;;;;4974705;28;20193;-70
2024/01/10 18:14:24;;;;;;;0.20;0.20;;;0.30;99.90;3.10;102786.00;;;;4994884;28;20195;-70
2024/01/10 18:17:29;;;;;;;1.13;1.13;;;0.10;99.90;3.80;102804.00;;;;5011146;28;20272;-71
2024/01/10 18:20:19;;;;;;;2.40;2.30;;;0.40;99.90;3.60;102795.00;;;;5018418;28;20183;-71
2024/01/10 18:22:57;;;;;;;0.40;0.40;;;0.50;99.90;3.50;102800.00;;;;5016933;28;20688;-71
2024/01/10 18:25:23;;;;;;;0.37;0.37;;;0.60;99.90;2.70;102817.00;;;;5010322;28;20657;-70
2024/01/10 18:28:01;;;;;;;1.70;1.70;;;0.30;99.90;3.00;102818.00;;;;4994834;28;20707;-70
2024/01/10 18:31:08;;;;;;;0.73;0.73;;;0.20;99.90;3.50;102841.00;;;;5010967;28;20224;-72
2024/01/10 18:33:52;;;;;;;1.60;1.60;;;0.30;99.90;3.50;102812.00;;;;4993315;28;20219;-71
2024/01/10 18:36:53;;;;;;;0.97;0.97;;;0.40;99.90;3.10;102839.00;;;;5010837;28;20198;-71
2024/01/10 18:39:30;;;;;;;0.53;0.53;;;0.30;99.90;2.30;102846.00;;;;5006963;28;20281;-71
2024/01/10 18:42:01;;;;;;;0.30;0.30;;;0.00;99.90;2.50;102836.00;;;;4982405;28;20185;-72
2024/01/10 18:44:52;;;;;;;0.80;0.80;;;-0.20;99.90;2.00;102776.00;;;;5005179;28;20188;-72
2024/01/10 18:47:20;;;;;;;0.53;0.53;;;-0.40;99.90;2.20;102868.00;;;;4975864;28;20283;-71
2024/01/10 18:49:48;;;;;;;0.20;0.20;;;-0.40;99.90;2.20;102844.00;;;;4957322;28;20177;-71
2024/01/10 18:52:14;;;;;;;0.20;0.20;;;-0.50;99.90;2.00;102860.00;;;;4980527;28;20244;-71
2024/01/10 18:55:01;;;;;;;1.02;1.02;;;-0.50;99.90;1.90;102842.00;;;;4988392;28;20430;-70
2024/01/10 18:57:27;;;;;;;1.80;1.70;;;-0.50;99.90;1.90;102871.00;;;;4975888;28;20212;-70
2024/01/10 19:00:34;;;;;;;1.20;1.03;;;-0.40;99.90;2.10;102782.00;;;;4983914;28;20185;-70
2024/01/10 19:03:00;;;;;;;0.40;0.40;;;-0.60;99.90;2.20;102888.00;;;;4992633;28;20188;-70
2024/01/10 19:05:29;;;;;;;0.20;0.20;;;-0.60;99.90;2.80;102864.00;;;;4986753;28;20643;-70
2024/01/10 19:08:00;;;;;;;0.40;0.40;;;-0.40;99.90;2.60;102800.00;;;;4969046;28;20647;-70
2024/01/10 19:10:27;;;;;;;0.30;0.30;;;-0.40;99.90;2.50;102798.00;;;;4953311;28;20238;-70
2024/01/10 19:13:26;;;;;;;2.17;1.97;;;-0.40;99.90;2.00;102879.00;;;;4975009;28;20204;-70
2024/01/10 19:16:00;;;;;;;1.07;1.07;;;-0.50;99.90;2.90;102866.00;;;;4986734;28;20731;-70
2024/01/10 19:18:38;;;;;;;2.00;1.90;;;-0.30;99.90;2.70;102810.00;;;;4981877;28;20326;-70
2024/01/10 19:21:16;;;;;;;0.70;0.70;;;-0.10;99.90;2.30;102869.00;;;;4996970;28;20552;-70